Strona główna
METAR-TAF:

METAR-TAF

Lotnisko :

Port lotniczy Luksemburg

Luksemburg, Luksemburg

Szerokość geograficzna: 49-37N, Długość geograficzna: 006-13E, wysokość: 376 m

Aktualna obserwacja pogody

Raport powstał 42 minut temu, godzina 04:50 UTC
Wiatr 10 kt od zachód
Temperatura 1°C
Wilgotność 93%
Ciśnienie 1026 hPa
Widzialność 10 km lub więcej
Przerywane chmury na wysokości 900 ft

METAR: ELLX 210450Z 26010KT 9999 BKN009 01/00 Q1026 NOSIG

czas: 06:32 (05:32 UTC)

Prognoza

Raport powstał 32 minut temu, godzina 05:00 UTC
Prognoza ważna od 21 godzina 06 UTC do 22 godzina 12 UTC
Wiatr 9 kt od zachód
Widzialność 10 km lub więcej
Brak chmur poniżej 1500 m i brak chmur cumulonimbus
Przejściowo
od 21 godzina 06 UTC do 21 godzina 09 UTC
Przerywane chmury na wysokości 600 ft

TAF: ELLX 210500Z 2106/2212 26009KT CAVOK TEMPO 2106/2109 BKN006

Obserwacja i prognoza pogody dla ponad 4000 lotnisk (raport METAR i TAF).

Dostępne stacje oznaczono żółtymi i czerwonymi punktami na mapie.

Najedź kursorem aby zobaczyć nazwę stacji.

Kliknij aby zobaczyć obserwacje i prognozy pogody.

Aby zmienić mapę: kliknij na zielony przycisk z czarnym krzyżykiem, aby powiększyć; na zielony przycisk z myślnikiem, aby pomniejszyć; na zielone strzałki, aby przejść do map sąsiednich.


METAR-TAF: